Time;durP1;ratioP1;P1;durP2;ratioP2;P2;SDS_P1;SDS_P2;PMS_P1;PMS_P2;Temp;Humidity;BMP_temperature;BMP_pressure;BME280_temperature;BME280_humidity;BME280_pressure;Samples;Min_cycle;Max_cycle;Signal;HPM_P1;HPM_P2
2023/09/14 00:00:38;;;;;;;9.70;8.80;;;;;;;;;;109353;274;39874;-38
2023/09/14 00:03:29;;;;;;;10.30;9.20;;;;;;;;;;109333;274;39525;-37
2023/09/14 00:06:03;;;;;;;10.20;9.20;;;;;;;;;;109306;274;50842;-37
2023/09/14 00:08:37;;;;;;;10.10;9.10;;;;;;;;;;109114;274;328869;-37
2023/09/14 00:11:13;;;;;;;9.80;8.80;;;;;;;;;;109309;274;38433;-37
2023/09/14 00:13:47;;;;;;;9.90;8.90;;;;;;;;;;109310;274;39334;-37
2023/09/14 00:16:20;;;;;;;9.70;8.70;;;;;;;;;;109312;274;49492;-37
2023/09/14 00:18:54;;;;;;;10.10;9.00;;;;;;;;;;109238;274;196055;-37
2023/09/14 00:21:27;;;;;;;9.50;8.50;;;;;;;;;;109322;274;38656;-37
2023/09/14 00:24:01;;;;;;;9.70;8.80;;;;;;;;;;109324;274;39502;-37
2023/09/14 00:26:34;;;;;;;10.00;9.00;;;;;;;;;;109289;274;49063;-37
2023/09/14 00:29:07;;;;;;;9.50;8.60;;;;;;;;;;109357;274;43142;-37
2023/09/14 00:31:42;;;;;;;10.00;8.90;;;;;;;;;;109339;274;38505;-37
2023/09/14 00:34:35;;;;;;;9.80;8.80;;;;;;;;;;109317;274;39601;-37
2023/09/14 00:37:13;;;;;;;9.80;8.80;;;;;;;;;;109197;274;175371;-37
2023/09/14 00:39:47;;;;;;;9.80;8.80;;;;;;;;;;109356;274;43409;-37
2023/09/14 00:42:20;;;;;;;9.30;8.40;;;;;;;;;;109294;274;38481;-37
2023/09/14 00:44:53;;;;;;;10.00;9.00;;;;;;;;;;109369;274;39352;-37
2023/09/14 00:47:27;;;;;;;9.90;8.90;;;;;;;;;;109292;274;48977;-37
2023/09/14 00:50:01;;;;;;;9.90;9.00;;;;;;;;;;109363;274;43660;-37
2023/09/14 00:52:37;;;;;;;9.70;8.70;;;;;;;;;;109324;274;38431;-37
2023/09/14 00:55:12;;;;;;;9.60;8.60;;;;;;;;;;109294;274;40628;-37
2023/09/14 00:57:49;;;;;;;9.20;8.30;;;;;;;;;;109500;274;48981;-37
2023/09/14 01:00:23;;;;;;;9.50;8.60;;;;;;;;;;109301;274;41870;-38
2023/09/14 01:02:59;;;;;;;9.70;8.70;;;;;;;;;;109301;274;38886;-37
2023/09/14 01:05:34;;;;;;;9.00;8.10;;;;;;;;;;109173;274;39523;-37
2023/09/14 01:08:08;;;;;;;9.60;8.40;;;;;;;;;;109380;274;43871;-37
2023/09/14 01:10:44;;;;;;;9.20;8.30;;;;;;;;;;109377;274;41962;-37
2023/09/14 01:13:38;;;;;;;9.70;8.80;;;;;;;;;;109346;274;38462;-37
2023/09/14 01:16:22;;;;;;;9.50;8.60;;;;;;;;;;109302;274;40719;-37
2023/09/14 01:19:05;;;;;;;9.10;8.20;;;;;;;;;;109292;274;42660;-37
2023/09/14 01:21:57;;;;;;;9.50;8.60;;;;;;;;;;109167;274;42041;-37
2023/09/14 01:24:54;;;;;;;8.70;7.80;;;;;;;;;;109153;274;38471;-37
2023/09/14 01:27:27;;;;;;;9.20;8.30;;;;;;;;;;109163;274;175418;-37
2023/09/14 01:30:03;;;;;;;8.80;8.00;;;;;;;;;;109333;274;42552;-37
2023/09/14 01:32:37;;;;;;;8.90;7.90;;;;;;;;;;109319;274;42029;-37
2023/09/14 01:35:11;;;;;;;8.70;7.80;;;;;;;;;;109294;274;38456;-37
2023/09/14 01:37:45;;;;;;;9.20;8.20;;;;;;;;;;109264;274;39529;-37
2023/09/14 01:40:19;;;;;;;9.10;7.70;;;;;;;;;;109311;274;42736;-38
2023/09/14 01:42:54;;;;;;;9.10;8.00;;;;;;;;;;109184;274;41998;-37
2023/09/14 01:45:28;;;;;;;8.90;8.10;;;;;;;;;;109276;274;38439;-37
2023/09/14 01:48:04;;;;;;;9.30;8.10;;;;;;;;;;109295;274;39314;-37
2023/09/14 01:50:37;;;;;;;8.90;8.00;;;;;;;;;;109373;274;43131;-37
2023/09/14 01:53:10;;;;;;;8.90;8.10;;;;;;;;;;109293;274;41825;-37
2023/09/14 01:55:44;;;;;;;9.30;7.60;;;;;;;;;;109332;274;38447;-37
2023/09/14 01:58:17;;;;;;;8.30;7.50;;;;;;;;;;109336;274;39338;-37
2023/09/14 02:00:50;;;;;;;9.10;7.70;;;;;;;;;;109273;274;43148;-37
2023/09/14 02:03:24;;;;;;;9.40;8.30;;;;;;;;;;109379;274;42874;-36
2023/09/14 02:06:02;;;;;;;8.70;7.80;;;;;;;;;;109325;274;38645;-36
2023/09/14 02:08:36;;;;;;;8.80;7.90;;;;;;;;;;109075;274;39445;-37
2023/09/14 02:11:11;;;;;;;9.40;8.40;;;;;;;;;;109360;274;42472;-36
2023/09/14 02:13:46;;;;;;;8.50;7.60;;;;;;;;;;109197;274;175087;-36
2023/09/14 02:16:19;;;;;;;8.40;7.60;;;;;;;;;;109319;274;38462;-37
2023/09/14 02:18:53;;;;;;;9.30;8.00;;;;;;;;;;109335;274;39566;-37
2023/09/14 02:21:27;;;;;;;8.50;7.60;;;;;;;;;;109301;274;43882;-37
2023/09/14 02:24:00;;;;;;;8.20;7.40;;;;;;;;;;109338;274;41777;-37
2023/09/14 02:26:33;;;;;;;8.10;7.20;;;;;;;;;;109300;274;38474;-37
2023/09/14 02:29:07;;;;;;;8.80;7.90;;;;;;;;;;109302;274;39361;-37
2023/09/14 02:31:40;;;;;;;8.00;7.10;;;;;;;;;;109277;274;42461;-37
2023/09/14 02:34:16;;;;;;;8.80;7.80;;;;;;;;;;109326;274;41800;-37
2023/09/14 02:36:50;;;;;;;8.60;7.40;;;;;;;;;;109386;274;38499;-37
2023/09/14 02:39:24;;;;;;;8.50;7.50;;;;;;;;;;109381;274;39459;-37
2023/09/14 02:41:57;;;;;;;8.40;7.60;;;;;;;;;;109377;274;42501;-36
2023/09/14 02:44:30;;;;;;;8.60;7.20;;;;;;;;;;109372;274;41788;-36
2023/09/14 02:47:04;;;;;;;8.80;7.10;;;;;;;;;;109359;274;38758;-36
2023/09/14 02:49:39;;;;;;;8.20;7.00;;;;;;;;;;109341;274;40655;-36
2023/09/14 02:52:13;;;;;;;7.50;6.60;;;;;;;;;;109190;274;175440;-36
2023/09/14 02:54:46;;;;;;;8.40;6.60;;;;;;;;;;109329;274;43087;-38
2023/09/14 02:57:20;;;;;;;8.50;7.10;;;;;;;;;;109355;274;38704;-37
2023/09/14 02:59:56;;;;;;;7.70;6.90;;;;;;;;;;109262;274;39304;-37
2023/09/14 03:02:30;;;;;;;7.70;6.90;;;;;;;;;;109374;274;42448;-36
2023/09/14 03:05:06;;;;;;;7.60;6.90;;;;;;;;;;108675;274;892681;-36
2023/09/14 03:07:40;;;;;;;7.60;6.60;;;;;;;;;;109328;274;39780;-36
2023/09/14 03:10:14;;;;;;;7.00;6.30;;;;;;;;;;109489;274;45369;-36
2023/09/14 03:12:48;;;;;;;7.30;6.40;;;;;;;;;;109324;274;43896;-37
2023/09/14 03:15:22;;;;;;;7.30;6.50;;;;;;;;;;109320;274;41800;-37
2023/09/14 03:17:55;;;;;;;7.50;6.50;;;;;;;;;;109330;274;38469;-37
2023/09/14 03:20:29;;;;;;;6.90;6.10;;;;;;;;;;109322;274;45342;-37
2023/09/14 03:23:02;;;;;;;7.50;6.70;;;;;;;;;;109334;274;42506;-37
2023/09/14 03:25:36;;;;;;;7.00;6.20;;;;;;;;;;109349;274;41996;-37
2023/09/14 03:28:10;;;;;;;7.70;6.60;;;;;;;;;;109378;274;38474;-37
2023/09/14 03:30:43;;;;;;;7.40;6.40;;;;;;;;;;109457;274;45141;-37
2023/09/14 03:33:17;;;;;;;7.30;6.50;;;;;;;;;;109151;274;175468;-37
2023/09/14 03:35:50;;;;;;;7.00;6.20;;;;;;;;;;109350;274;42118;-38
2023/09/14 03:38:23;;;;;;;6.90;6.20;;;;;;;;;;109376;274;38943;-37
2023/09/14 03:40:57;;;;;;;6.80;5.80;;;;;;;;;;109327;274;46597;-37
2023/09/14 03:43:32;;;;;;;6.80;5.90;;;;;;;;;;109332;274;43826;-37
2023/09/14 03:46:05;;;;;;;7.60;5.90;;;;;;;;;;109154;274;41799;-37
2023/09/14 03:48:39;;;;;;;6.40;5.40;;;;;;;;;;109504;274;39768;-37
2023/09/14 03:51:15;;;;;;;6.80;5.60;;;;;;;;;;109350;274;45601;-37
2023/09/14 03:53:48;;;;;;;6.20;5.60;;;;;;;;;;109329;274;42778;-37
2023/09/14 03:56:21;;;;;;;6.80;5.70;;;;;;;;;;109339;274;43172;-37
2023/09/14 03:58:55;;;;;;;6.60;5.60;;;;;;;;;;109315;274;38469;-37
2023/09/14 04:01:28;;;;;;;6.70;5.40;;;;;;;;;;109335;274;45306;-37
2023/09/14 04:04:03;;;;;;;6.50;5.50;;;;;;;;;;109336;274;42710;-36
2023/09/14 04:06:37;;;;;;;6.60;5.30;;;;;;;;;;109353;274;41936;-36
2023/09/14 04:09:11;;;;;;;7.30;5.10;;;;;;;;;;109344;274;38484;-36
2023/09/14 04:11:44;;;;;;;5.90;4.80;;;;;;;;;;109346;274;45334;-37
2023/09/14 04:14:17;;;;;;;6.20;5.20;;;;;;;;;;109324;274;42497;-37
2023/09/14 04:16:53;;;;;;;6.20;4.90;;;;;;;;;;109322;274;42999;-37
2023/09/14 04:19:28;;;;;;;6.30;5.00;;;;;;;;;;109412;274;38791;-37
2023/09/14 04:22:02;;;;;;;6.50;5.10;;;;;;;;;;109304;274;45405;-37
2023/09/14 04:24:36;;;;;;;6.30;5.20;;;;;;;;;;109190;274;175438;-37
2023/09/14 04:27:12;;;;;;;6.10;4.90;;;;;;;;;;109313;274;43355;-37
2023/09/14 04:29:46;;;;;;;6.40;5.00;;;;;;;;;;109324;274;38486;-37
2023/09/14 04:32:20;;;;;;;6.00;4.60;;;;;;;;;;109317;274;45577;-37
2023/09/14 04:34:54;;;;;;;5.40;4.50;;;;;;;;;;109301;274;43943;-38
2023/09/14 04:37:28;;;;;;;5.70;4.60;;;;;;;;;;109325;274;41740;-37
2023/09/14 04:40:05;;;;;;;5.40;4.30;;;;;;;;;;109311;274;39857;-37
2023/09/14 04:42:39;;;;;;;5.80;4.30;;;;;;;;;;109467;274;45384;-37
2023/09/14 04:45:13;;;;;;;5.80;4.30;;;;;;;;;;109365;274;43876;-37
2023/09/14 04:47:48;;;;;;;5.40;4.10;;;;;;;;;;109332;274;43134;-38
2023/09/14 04:50:22;;;;;;;5.50;4.30;;;;;;;;;;109346;274;38655;-38
2023/09/14 04:52:56;;;;;;;5.20;4.00;;;;;;;;;;109327;274;44516;-37
2023/09/14 04:55:29;;;;;;;5.50;4.00;;;;;;;;;;109316;274;42587;-38
2023/09/14 04:58:02;;;;;;;5.90;4.20;;;;;;;;;;109370;274;41739;-38
2023/09/14 05:00:38;;;;;;;5.70;3.90;;;;;;;;;;109337;274;38838;-38
2023/09/14 05:03:12;;;;;;;5.50;3.90;;;;;;;;;;109440;274;44635;-38
2023/09/14 05:05:49;;;;;;;5.90;3.70;;;;;;;;;;109355;274;42910;-38
2023/09/14 05:08:24;;;;;;;5.70;4.10;;;;;;;;;;109324;274;42142;-38
2023/09/14 05:10:58;;;;;;;5.90;3.90;;;;;;;;;;109168;274;38425;-38
2023/09/14 05:13:32;;;;;;;5.70;3.60;;;;;;;;;;109307;274;45114;-38
2023/09/14 05:16:05;;;;;;;7.20;3.70;;;;;;;;;;109323;274;43887;-38
2023/09/14 05:18:39;;;;;;;5.80;3.50;;;;;;;;;;109370;274;41845;-38
2023/09/14 05:21:16;;;;;;;5.70;3.50;;;;;;;;;;109332;274;39785;-38
2023/09/14 05:23:50;;;;;;;5.30;3.30;;;;;;;;;;109332;274;45266;-38
2023/09/14 05:26:23;;;;;;;4.90;3.30;;;;;;;;;;109337;274;43146;-38
2023/09/14 05:28:57;;;;;;;4.90;3.00;;;;;;;;;;109316;274;42333;-37
2023/09/14 05:31:31;;;;;;;5.30;3.30;;;;;;;;;;109395;274;37690;-38
2023/09/14 05:34:06;;;;;;;5.60;3.20;;;;;;;;;;109312;274;44515;-37
2023/09/14 05:36:41;;;;;;;5.10;3.20;;;;;;;;;;109346;274;43878;-37
2023/09/14 05:39:16;;;;;;;5.20;3.20;;;;;;;;;;109335;274;41740;-38
2023/09/14 05:41:50;;;;;;;4.80;2.80;;;;;;;;;;109343;274;38716;-38
2023/09/14 05:44:26;;;;;;;4.90;3.00;;;;;;;;;;109274;274;45283;-38
2023/09/14 05:47:00;;;;;;;4.80;2.70;;;;;;;;;;109331;274;42727;-38
2023/09/14 05:49:36;;;;;;;4.50;2.70;;;;;;;;;;109299;274;42024;-38
2023/09/14 05:52:10;;;;;;;5.00;2.70;;;;;;;;;;109347;274;38607;-38
2023/09/14 05:54:44;;;;;;;4.90;2.40;;;;;;;;;;109110;274;45585;-38
2023/09/14 05:57:19;;;;;;;4.50;2.40;;;;;;;;;;109328;274;42556;-38
2023/09/14 05:59:54;;;;;;;4.20;2.30;;;;;;;;;;109315;274;41739;-38
2023/09/14 06:02:28;;;;;;;4.10;2.40;;;;;;;;;;109350;274;39998;-38
2023/09/14 06:05:01;;;;;;;4.40;2.40;;;;;;;;;;109333;274;45247;-38
2023/09/14 06:07:55;;;;;;;5.30;2.50;;;;;;;;;;109316;274;42664;-38
2023/09/14 06:10:28;;;;;;;5.00;2.40;;;;;;;;;;109393;274;41780;-38
2023/09/14 06:13:02;;;;;;;4.90;2.50;;;;;;;;;;109302;274;38581;-38
2023/09/14 06:15:35;;;;;;;4.70;2.50;;;;;;;;;;109247;274;175469;-37
2023/09/14 06:18:10;;;;;;;4.50;2.20;;;;;;;;;;109297;274;42910;-37
2023/09/14 06:20:44;;;;;;;4.70;2.40;;;;;;;;;;109305;274;42034;-38
2023/09/14 06:23:17;;;;;;;5.00;2.20;;;;;;;;;;109168;274;175475;-38
2023/09/14 06:25:52;;;;;;;4.60;2.20;;;;;;;;;;109332;274;39734;-38
2023/09/14 06:28:26;;;;;;;4.30;2.30;;;;;;;;;;109329;274;42500;-38
2023/09/14 06:31:00;;;;;;;4.50;2.30;;;;;;;;;;109333;274;41899;-37
2023/09/14 06:33:34;;;;;;;4.40;2.30;;;;;;;;;;109266;274;38775;-37
2023/09/14 06:36:08;;;;;;;4.30;2.20;;;;;;;;;;109375;274;39552;-37
2023/09/14 06:38:41;;;;;;;3.60;1.80;;;;;;;;;;109345;274;42746;-37
2023/09/14 06:41:15;;;;;;;4.10;2.10;;;;;;;;;;109237;274;175466;-36
2023/09/14 06:43:50;;;;;;;4.50;2.20;;;;;;;;;;109301;274;38609;-36
2023/09/14 06:46:23;;;;;;;4.40;1.90;;;;;;;;;;109312;274;40714;-37
2023/09/14 06:48:57;;;;;;;3.60;1.90;;;;;;;;;;109321;274;44058;-37
2023/09/14 06:51:32;;;;;;;4.10;1.80;;;;;;;;;;109321;274;42135;-36
2023/09/14 06:54:05;;;;;;;4.40;2.00;;;;;;;;;;109129;274;40022;-36
2023/09/14 06:56:39;;;;;;;4.50;2.10;;;;;;;;;;109323;274;39472;-36
2023/09/14 06:59:12;;;;;;;4.30;2.10;;;;;;;;;;109207;274;175434;-36
2023/09/14 07:01:47;;;;;;;3.70;2.00;;;;;;;;;;109327;274;42001;-36
2023/09/14 07:04:20;;;;;;;4.10;2.00;;;;;;;;;;109263;274;38662;-36
2023/09/14 07:06:54;;;;;;;4.20;2.00;;;;;;;;;;109298;274;40713;-37
2023/09/14 07:09:30;;;;;;;4.20;2.10;;;;;;;;;;109313;274;42718;-37
2023/09/14 07:12:06;;;;;;;3.90;2.10;;;;;;;;;;109304;274;42087;-37
2023/09/14 07:14:39;;;;;;;5.10;1.90;;;;;;;;;;109338;274;38639;-37
2023/09/14 07:17:14;;;;;;;3.70;1.80;;;;;;;;;;109365;274;39561;-37
2023/09/14 07:19:47;;;;;;;3.80;1.80;;;;;;;;;;109391;274;42779;-37
2023/09/14 07:22:23;;;;;;;3.70;1.80;;;;;;;;;;109311;274;42175;-37
2023/09/14 07:24:57;;;;;;;4.50;1.90;;;;;;;;;;109159;274;175201;-37
2023/09/14 07:27:30;;;;;;;3.70;2.00;;;;;;;;;;109349;274;40986;-36
2023/09/14 07:30:04;;;;;;;4.10;1.90;;;;;;;;;;109454;274;42849;-37
2023/09/14 07:32:37;;;;;;;4.60;2.10;;;;;;;;;;109351;274;42188;-38
2023/09/14 07:35:12;;;;;;;3.50;1.70;;;;;;;;;;109345;274;39953;-38
2023/09/14 07:37:48;;;;;;;3.70;1.70;;;;;;;;;;109342;274;41086;-38
2023/09/14 07:40:21;;;;;;;3.80;1.80;;;;;;;;;;109309;274;43247;-37
2023/09/14 07:42:54;;;;;;;4.00;1.70;;;;;;;;;;109317;274;41924;-38
2023/09/14 07:45:28;;;;;;;4.00;1.60;;;;;;;;;;109324;274;38660;-37
2023/09/14 07:48:06;;;;;;;3.80;1.80;;;;;;;;;;109337;274;39819;-37
2023/09/14 07:50:41;;;;;;;4.00;1.80;;;;;;;;;;109385;274;42817;-37
2023/09/14 07:53:16;;;;;;;4.50;1.80;;;;;;;;;;109335;274;41966;-36
2023/09/14 07:55:53;;;;;;;3.70;1.80;;;;;;;;;;108695;274;892006;-37
2023/09/14 07:58:27;;;;;;;3.80;1.60;;;;;;;;;;109519;274;39407;-36
2023/09/14 08:01:00;;;;;;;3.40;1.40;;;;;;;;;;109321;274;42637;-37
2023/09/14 08:03:34;;;;;;;3.40;1.60;;;;;;;;;;109302;274;42125;-38
2023/09/14 08:06:08;;;;;;;3.90;1.60;;;;;;;;;;109331;274;39949;-39
2023/09/14 08:08:41;;;;;;;4.00;1.40;;;;;;;;;;109366;274;131141;-42
2023/09/14 08:11:15;;;;;;;3.60;1.40;;;;;;;;;;109374;274;44068;-37
2023/09/14 08:13:49;;;;;;;3.30;1.30;;;;;;;;;;109308;274;42072;-38
2023/09/14 08:16:23;;;;;;;3.60;1.30;;;;;;;;;;109340;274;38676;-39
2023/09/14 08:18:57;;;;;;;3.10;1.20;;;;;;;;;;109319;274;41045;-37
2023/09/14 08:21:30;;;;;;;3.80;1.40;;;;;;;;;;108669;274;892103;-37
2023/09/14 08:24:07;;;;;;;3.90;1.30;;;;;;;;;;109327;274;42192;-37
2023/09/14 08:26:40;;;;;;;3.80;1.30;;;;;;;;;;109345;274;38692;-37
2023/09/14 08:29:14;;;;;;;3.40;1.20;;;;;;;;;;109339;274;39561;-37
2023/09/14 08:31:48;;;;;;;3.40;1.20;;;;;;;;;;109374;274;42846;-37
2023/09/14 08:34:22;;;;;;;4.40;1.20;;;;;;;;;;109339;274;42062;-37
2023/09/14 08:36:55;;;;;;;3.50;1.10;;;;;;;;;;109319;274;38428;-36
2023/09/14 08:39:29;;;;;;;3.10;1.30;;;;;;;;;;109339;274;39564;-37
2023/09/14 08:42:03;;;;;;;2.10;0.90;;;;;;;;;;109296;274;42839;-36
2023/09/14 08:44:39;;;;;;;3.30;1.20;;;;;;;;;;109337;274;42251;-37
2023/09/14 08:47:16;;;;;;;3.30;1.20;;;;;;;;;;109373;274;38750;-37
2023/09/14 08:49:53;;;;;;;2.60;1.00;;;;;;;;;;109350;274;40049;-37
2023/09/14 08:52:28;;;;;;;2.90;1.00;;;;;;;;;;109315;274;42505;-38
2023/09/14 08:55:01;;;;;;;2.50;1.00;;;;;;;;;;109310;270;42083;-40
2023/09/14 08:57:36;;;;;;;2.10;0.90;;;;;;;;;;109304;274;38699;-39
2023/09/14 09:00:15;;;;;;;2.10;0.90;;;;;;;;;;109370;274;40773;-39
2023/09/14 09:02:52;;;;;;;2.00;0.80;;;;;;;;;;109370;274;42851;-38
2023/09/14 09:05:27;;;;;;;2.40;0.90;;;;;;;;;;109372;274;42306;-39
2023/09/14 09:08:01;;;;;;;1.90;0.80;;;;;;;;;;109317;274;38858;-39
2023/09/14 09:10:36;;;;;;;2.40;0.90;;;;;;;;;;109339;274;40785;-39
2023/09/14 09:13:09;;;;;;;2.30;0.90;;;;;;;;;;109383;274;42574;-39
2023/09/14 09:15:44;;;;;;;3.00;1.00;;;;;;;;;;109353;274;42191;-40
2023/09/14 09:18:17;;;;;;;2.60;1.10;;;;;;;;;;109304;274;39085;-38
2023/09/14 09:20:51;;;;;;;3.30;1.00;;;;;;;;;;109125;274;39369;-38
2023/09/14 09:23:24;;;;;;;2.40;0.90;;;;;;;;;;109304;274;42726;-40
2023/09/14 09:25:58;;;;;;;2.90;1.00;;;;;;;;;;109338;274;42052;-38
2023/09/14 09:28:33;;;;;;;2.60;0.90;;;;;;;;;;109286;274;38458;-37
2023/09/14 09:31:07;;;;;;;3.70;1.00;;;;;;;;;;109328;274;39773;-39
2023/09/14 09:33:46;;;;;;;2.70;1.00;;;;;;;;;;109323;274;42794;-39
2023/09/14 09:36:23;;;;;;;2.70;1.00;;;;;;;;;;109315;274;43342;-39
2023/09/14 09:39:00;;;;;;;2.40;0.90;;;;;;;;;;109269;274;38506;-39
2023/09/14 09:41:36;;;;;;;3.30;1.20;;;;;;;;;;109289;274;39508;-39
2023/09/14 09:44:13;;;;;;;3.10;1.10;;;;;;;;;;109346;274;42528;-39
2023/09/14 09:46:48;;;;;;;2.20;1.10;;;;;;;;;;109114;274;41877;-39
2023/09/14 09:49:24;;;;;;;2.70;1.20;;;;;;;;;;109348;274;39994;-39
2023/09/14 09:51:57;;;;;;;3.50;1.30;;;;;;;;;;109377;274;39426;-39
2023/09/14 09:54:33;;;;;;;2.60;1.10;;;;;;;;;;109335;274;42773;-39
2023/09/14 09:57:08;;;;;;;2.90;1.30;;;;;;;;;;109321;274;41973;-39
2023/09/14 09:59:46;;;;;;;2.90;1.10;;;;;;;;;;109490;274;44284;-39
2023/09/14 10:02:31;;;;;;;3.10;1.30;;;;;;;;;;109321;274;39526;-39
2023/09/14 10:05:05;;;;;;;2.30;1.20;;;;;;;;;;109330;274;42635;-39
2023/09/14 10:07:42;;;;;;;2.60;1.20;;;;;;;;;;109302;274;41748;-40
2023/09/14 10:10:15;;;;;;;2.80;1.30;;;;;;;;;;109324;274;47332;-39
2023/09/14 10:12:51;;;;;;;2.90;1.20;;;;;;;;;;109337;274;39771;-38
2023/09/14 10:15:27;;;;;;;2.90;1.10;;;;;;;;;;109031;274;175463;-39
2023/09/14 10:18:01;;;;;;;2.50;1.20;;;;;;;;;;109328;274;43129;-39
2023/09/14 10:20:37;;;;;;;3.30;1.30;;;;;;;;;;109303;274;45043;-38
2023/09/14 10:23:11;;;;;;;2.90;1.20;;;;;;;;;;109314;274;39738;-39
2023/09/14 10:25:49;;;;;;;3.40;1.30;;;;;;;;;;109324;274;42747;-39
2023/09/14 10:28:23;;;;;;;3.20;1.40;;;;;;;;;;109322;274;42033;-39
2023/09/14 10:31:01;;;;;;;2.50;1.20;;;;;;;;;;109239;274;175504;-39
2023/09/14 10:33:36;;;;;;;3.00;1.20;;;;;;;;;;109342;274;39564;-39
2023/09/14 10:36:13;;;;;;;2.50;1.20;;;;;;;;;;109335;274;42524;-39
2023/09/14 10:38:49;;;;;;;3.00;1.30;;;;;;;;;;109372;274;41826;-38
2023/09/14 10:41:24;;;;;;;3.00;1.20;;;;;;;;;;109162;274;38989;-38
2023/09/14 10:44:00;;;;;;;2.40;1.20;;;;;;;;;;109307;274;39622;-38
2023/09/14 10:46:41;;;;;;;2.40;1.20;;;;;;;;;;109330;274;42590;-39
2023/09/14 10:49:16;;;;;;;2.80;1.40;;;;;;;;;;109272;274;41795;-39
2023/09/14 10:51:51;;;;;;;3.20;1.70;;;;;;;;;;109287;274;38491;-38
2023/09/14 10:54:27;;;;;;;2.80;1.60;;;;;;;;;;109337;274;39516;-39
2023/09/14 10:57:02;;;;;;;3.20;1.90;;;;;;;;;;109343;274;42478;-39
2023/09/14 10:59:55;;;;;;;3.50;1.90;;;;;;;;;;109323;274;42027;-39
2023/09/14 11:02:58;;;;;;;3.50;1.70;;;;;;;;;;109321;274;38663;-39
2023/09/14 11:05:53;;;;;;;3.00;1.50;;;;;;;;;;109327;274;39483;-39
2023/09/14 11:09:08;;;;;;;2.70;1.40;;;;;;;;;;109309;274;42567;-40
2023/09/14 11:11:50;;;;;;;3.20;1.50;;;;;;;;;;109325;274;47946;-39
2023/09/14 11:14:29;;;;;;;2.70;1.30;;;;;;;;;;109298;274;38485;-38
2023/09/14 11:17:05;;;;;;;4.00;1.50;;;;;;;;;;109228;274;175511;-40
2023/09/14 11:19:52;;;;;;;3.00;1.30;;;;;;;;;;109316;274;42528;-38
2023/09/14 11:22:31;;;;;;;2.90;1.30;;;;;;;;;;109277;274;49656;-37
2023/09/14 11:25:11;;;;;;;2.50;1.10;;;;;;;;;;109361;274;38758;-38
2023/09/14 11:28:02;;;;;;;2.70;1.10;;;;;;;;;;109305;274;39303;-38
2023/09/14 11:30:44;;;;;;;2.80;1.10;;;;;;;;;;109321;274;44301;-37
2023/09/14 11:33:22;;;;;;;2.40;1.10;;;;;;;;;;109343;274;41708;-36
2023/09/14 11:35:59;;;;;;;2.90;1.10;;;;;;;;;;109265;274;40008;-37
2023/09/14 11:38:39;;;;;;;1.90;0.80;;;;;;;;;;109256;274;39293;-36
2023/09/14 11:41:57;;;;;;;2.70;1.00;;;;;;;;;;109238;274;42800;-37
2023/09/14 11:44:49;;;;;;;2.40;1.00;;;;;;;;;;109332;274;41756;-36
2023/09/14 11:47:31;;;;;;;4.90;1.00;;;;;;;;;;109314;274;38716;-38
2023/09/14 11:50:13;;;;;;;3.20;1.00;;;;;;;;;;109365;274;39799;-38
2023/09/14 11:52:47;;;;;;;2.60;0.90;;;;;;;;;;109356;274;42827;-38
2023/09/14 11:55:23;;;;;;;2.70;1.20;;;;;;;;;;109329;274;43114;-38
2023/09/14 11:57:58;;;;;;;2.00;0.80;;;;;;;;;;109313;274;39918;-38
2023/09/14 12:00:41;;;;;;;2.70;0.90;;;;;;;;;;109347;274;39525;-39
2023/09/14 12:03:14;;;;;;;1.70;0.90;;;;;;;;;;109418;274;48509;-39
2023/09/14 12:05:49;;;;;;;2.20;0.90;;;;;;;;;;109318;274;43091;-38
2023/09/14 12:08:22;;;;;;;2.20;1.00;;;;;;;;;;109321;274;38468;-40
2023/09/14 12:10:57;;;;;;;2.60;0.90;;;;;;;;;;109332;274;39340;-40
2023/09/14 12:13:31;;;;;;;2.10;0.90;;;;;;;;;;109407;274;49779;-43
2023/09/14 12:16:06;;;;;;;2.90;1.00;;;;;;;;;;109293;274;42182;-41
2023/09/14 12:18:44;;;;;;;2.50;0.90;;;;;;;;;;109340;274;38441;-39
2023/09/14 12:21:26;;;;;;;2.00;0.80;;;;;;;;;;109312;274;39354;-38
2023/09/14 12:24:00;;;;;;;2.40;0.90;;;;;;;;;;109342;274;49071;-42
2023/09/14 12:26:34;;;;;;;2.40;0.80;;;;;;;;;;109350;274;43139;-40
2023/09/14 12:29:09;;;;;;;2.70;0.90;;;;;;;;;;109350;274;38551;-40
2023/09/14 12:31:43;;;;;;;2.90;0.80;;;;;;;;;;109276;274;39729;-40
2023/09/14 12:34:16;;;;;;;2.20;1.00;;;;;;;;;;109344;274;48572;-42
2023/09/14 12:36:50;;;;;;;2.50;0.90;;;;;;;;;;109344;274;41774;-39
2023/09/14 12:39:25;;;;;;;2.20;0.70;;;;;;;;;;109370;274;39968;-39
2023/09/14 12:42:00;;;;;;;2.10;0.90;;;;;;;;;;109316;274;39594;-40
2023/09/14 12:44:35;;;;;;;2.10;0.80;;;;;;;;;;109296;274;50066;-40
2023/09/14 12:47:08;;;;;;;1.80;0.80;;;;;;;;;;109403;274;43270;-42
2023/09/14 12:49:42;;;;;;;1.70;0.70;;;;;;;;;;109299;274;38663;-39
2023/09/14 12:52:16;;;;;;;1.80;0.70;;;;;;;;;;109302;274;39911;-38
2023/09/14 12:54:50;;;;;;;2.10;0.60;;;;;;;;;;109329;274;49314;-41
2023/09/14 12:57:24;;;;;;;1.60;0.60;;;;;;;;;;109315;274;43099;-40
2023/09/14 13:00:11;;;;;;;2.00;0.70;;;;;;;;;;109360;274;38737;-40
2023/09/14 13:02:48;;;;;;;2.10;0.60;;;;;;;;;;109259;274;39776;-39
2023/09/14 13:05:26;;;;;;;1.90;0.70;;;;;;;;;;109281;274;175399;-36
2023/09/14 13:08:04;;;;;;;2.50;0.50;;;;;;;;;;109400;274;43238;-36
2023/09/14 13:10:40;;;;;;;1.90;0.70;;;;;;;;;;109333;274;38482;-36
2023/09/14 13:13:14;;;;;;;2.10;0.80;;;;;;;;;;109359;274;40656;-36
2023/09/14 13:15:48;;;;;;;1.40;0.60;;;;;;;;;;109332;274;42799;-36
2023/09/14 13:18:21;;;;;;;1.60;0.50;;;;;;;;;;109374;274;42037;-36
2023/09/14 13:21:04;;;;;;;1.40;0.60;;;;;;;;;;109343;274;38718;-37
2023/09/14 13:23:40;;;;;;;1.30;0.50;;;;;;;;;;109108;274;39347;-37
2023/09/14 13:26:14;;;;;;;1.60;0.60;;;;;;;;;;109324;274;42793;-36
2023/09/14 13:28:49;;;;;;;2.90;1.00;;;;;;;;;;109364;274;41764;-36
2023/09/14 13:31:22;;;;;;;3.60;1.20;;;;;;;;;;109353;274;38486;-36
2023/09/14 13:33:56;;;;;;;5.50;1.50;;;;;;;;;;109363;274;40614;-36
2023/09/14 13:36:29;;;;;;;4.40;1.20;;;;;;;;;;109014;274;174995;-36
2023/09/14 13:39:03;;;;;;;4.00;1.10;;;;;;;;;;109387;274;42007;-36
2023/09/14 13:41:38;;;;;;;3.80;1.00;;;;;;;;;;109337;274;38689;-36
2023/09/14 13:44:12;;;;;;;3.90;1.40;;;;;;;;;;109214;274;177035;-36
2023/09/14 13:46:48;;;;;;;5.10;1.90;;;;;;;;;;109138;274;42493;-36
2023/09/14 13:49:22;;;;;;;5.70;3.00;;;;;;;;;;109319;274;43318;-36
2023/09/14 13:51:55;;;;;;;8.80;5.50;;;;;;;;;;109203;274;174978;-35
2023/09/14 13:54:30;;;;;;;7.90;4.70;;;;;;;;;;109176;275;39769;-35
2023/09/14 13:57:04;;;;;;;5.30;2.50;;;;;;;;;;109506;274;42599;-35
2023/09/14 13:59:37;;;;;;;5.40;2.60;;;;;;;;;;109569;274;41034;-35
2023/09/14 14:02:10;;;;;;;4.90;2.30;;;;;;;;;;109529;275;38708;-35
2023/09/14 14:04:45;;;;;;;4.90;2.50;;;;;;;;;;109496;274;39580;-36
2023/09/14 14:07:19;;;;;;;4.00;1.80;;;;;;;;;;109718;274;43188;-36
2023/09/14 14:09:52;;;;;;;5.00;2.00;;;;;;;;;;109586;274;43361;-36
2023/09/14 14:12:25;;;;;;;4.00;1.80;;;;;;;;;;109584;274;38858;-35
2023/09/14 14:14:59;;;;;;;3.90;1.40;;;;;;;;;;109512;274;39554;-35
2023/09/14 14:17:32;;;;;;;4.00;1.30;;;;;;;;;;109548;275;45381;-35
2023/09/14 14:20:11;;;;;;;3.00;1.20;;;;;;;;;;109510;275;41956;-35
2023/09/14 14:22:44;;;;;;;3.20;1.10;;;;;;;;;;109530;275;38706;-35
2023/09/14 14:25:20;;;;;;;2.50;1.00;;;;;;;;;;109504;274;40701;-35
2023/09/14 14:27:53;;;;;;;3.70;1.10;;;;;;;;;;109659;274;44167;-35
2023/09/14 14:30:27;;;;;;;3.00;1.00;;;;;;;;;;109602;274;43339;-35
2023/09/14 14:33:00;;;;;;;3.10;0.90;;;;;;;;;;109512;274;38854;-35
2023/09/14 14:35:34;;;;;;;2.40;0.90;;;;;;;;;;109538;274;39769;-35
2023/09/14 14:38:08;;;;;;;2.50;0.80;;;;;;;;;;109145;275;42844;-41
2023/09/14 14:40:41;;;;;;;2.50;0.90;;;;;;;;;;109576;275;42180;-35
2023/09/14 14:43:34;;;;;;;3.80;0.90;;;;;;;;;;104967;275;3013483;-35
2023/09/14 14:46:07;;;;;;;3.30;0.80;;;;;;;;;;109560;274;25126;-36
2023/09/14 14:48:42;;;;;;;2.60;0.90;;;;;;;;;;109643;274;44095;-35
2023/09/14 14:51:16;;;;;;;2.50;0.90;;;;;;;;;;109578;274;42048;-35
2023/09/14 14:53:50;;;;;;;2.60;1.00;;;;;;;;;;109449;274;38755;-35
2023/09/14 14:56:26;;;;;;;2.80;0.90;;;;;;;;;;109355;274;39311;-35
2023/09/14 14:58:59;;;;;;;2.90;0.80;;;;;;;;;;109340;274;43829;-35
2023/09/14 15:01:33;;;;;;;2.20;0.90;;;;;;;;;;109321;274;43256;-35
2023/09/14 15:04:08;;;;;;;2.50;0.70;;;;;;;;;;109335;274;38654;-35
2023/09/14 15:06:41;;;;;;;2.50;0.80;;;;;;;;;;109357;274;39757;-42
2023/09/14 15:09:16;;;;;;;2.40;0.90;;;;;;;;;;109348;274;43008;-42
2023/09/14 15:11:49;;;;;;;2.80;0.90;;;;;;;;;;109358;274;42680;-39
2023/09/14 15:14:23;;;;;;;2.30;0.90;;;;;;;;;;109155;274;38686;-41
2023/09/14 15:16:56;;;;;;;2.80;0.90;;;;;;;;;;109315;274;39339;-39
2023/09/14 15:19:31;;;;;;;2.70;0.90;;;;;;;;;;109355;274;44072;-40
2023/09/14 15:22:06;;;;;;;3.40;1.00;;;;;;;;;;109359;274;43299;-40
2023/09/14 15:24:39;;;;;;;2.10;0.70;;;;;;;;;;109297;269;38725;-39
2023/09/14 15:27:14;;;;;;;2.70;1.00;;;;;;;;;;109334;265;39603;-39
2023/09/14 15:29:47;;;;;;;3.40;0.90;;;;;;;;;;109398;270;42950;-38